Island Supplier — WCZ2444 — position and weather

sailwx.info

Track history (hours):
 
Tides and Currents Weather Stations Pressure Air Temp Water Temp Dewpoint Dewpoint Depression Visibility Wind Speed Wind Dir Waves Ship Positions

Island Supplier

Owner: TWO HARBORS ENT, AVALON, CA. More information available from US FCC via Universal Licensing System and Coast Guard Vessel Documentation Center.

Last reported at 2014-Dec-11 12:22 UTC. Time now 2014-Dec-20 03:44 UTC.
Position N 33°45' W 118°16'.
Warning: this ship's position is 8 days out of date.

Length 22 m; draft 1 m.

Type: Cargo ship. MMSI: 366765690.

Date/timePositionNaut miles runAvg speedWind from/ knotsBaromVisibWave heightAir tempDewpointWater temp
2014-Dec-11 12:22N 33°45' W 118°16'0 0.0
2014-Dec-10 17:16N 33°45' W 118°16'0 0.0
2014-Dec-10 15:08N 33°45' W 118°16'0 0.1
2014-Dec-10 14:31N 33°45' W 118°16'5 4.4
2014-Dec-10 13:17N 33°40' W 118°15'5 6.7
2014-Dec-10 12:33N 33°37' W 118°20'8 7.6
2014-Dec-10 11:34N 33°31' W 118°26'  
2014-Dec-02 02:07N 33°43' W 118°16'6 5.7
2014-Dec-02 01:06N 33°39' W 118°20'4 7.0
2014-Dec-02 00:33N 33°37' W 118°24'7 7.3
2014-Dec-01 23:32N 33°32' W 118°31'  
Track history (hours):
 
Tides and Currents Weather Stations Pressure Air Temp Water Temp Dewpoint Dewpoint Depression Visibility Wind Speed Wind Dir Waves Ship Positions

Island Supplier

Owner: TWO HARBORS ENT, AVALON, CA. More information available from US FCC via Universal Licensing System and Coast Guard Vessel Documentation Center.

Last reported at 2014-Dec-11 12:22 UTC. Time now 2014-Dec-20 03:44 UTC.
Position N 33°45' W 118°16'.
Warning: this ship's position is 8 days out of date.

Length 22 m; draft 1 m.

Type: Cargo ship. MMSI: 366765690.

Date/timePositionNaut miles runAvg speedWind from/ knotsBaromVisibWave heightAir tempDewpointWater temp
2014-Dec-11 12:22N 33°45' W 118°16'0 0.0
2014-Dec-10 17:16N 33°45' W 118°16'0 0.0
2014-Dec-10 15:08N 33°45' W 118°16'0 0.1
2014-Dec-10 14:31N 33°45' W 118°16'5 4.4
2014-Dec-10 13:17N 33°40' W 118°15'5 6.7
2014-Dec-10 12:33N 33°37' W 118°20'8 7.6
2014-Dec-10 11:34N 33°31' W 118°26'  
2014-Dec-02 02:07N 33°43' W 118°16'6 5.7
2014-Dec-02 01:06N 33°39' W 118°20'4 7.0
2014-Dec-02 00:33N 33°37' W 118°24'7 7.3
2014-Dec-01 23:32N 33°32' W 118°31'  

Dump ship's entire track history